sensor_id;sensor_type;location;lat;lon;timestamp;temperature;humidity
2435;DHT22;1228;51.022;6.764;2022-12-31T00:00:38;14.60;99.90
2435;DHT22;1228;51.022;6.764;2022-12-31T00:03:05;14.60;99.90
2435;DHT22;1228;51.022;6.764;2022-12-31T00:05:31;14.60;99.90
2435;DHT22;1228;51.022;6.764;2022-12-31T00:07:57;14.70;99.90
2435;DHT22;1228;51.022;6.764;2022-12-31T00:10:23;14.70;99.90
2435;DHT22;1228;51.022;6.764;2022-12-31T00:12:49;14.70;99.90
2435;DHT22;1228;51.022;6.764;2022-12-31T00:15:15;14.70;99.90
2435;DHT22;1228;51.022;6.764;2022-12-31T00:17:40;14.80;99.90
2435;DHT22;1228;51.022;6.764;2022-12-31T00:20:06;14.80;99.90
2435;DHT22;1228;51.022;6.764;2022-12-31T00:22:33;14.80;99.90
2435;DHT22;1228;51.022;6.764;2022-12-31T00:24:59;14.80;99.90
2435;DHT22;1228;51.022;6.764;2022-12-31T00:27:24;14.80;99.90
2435;DHT22;1228;51.022;6.764;2022-12-31T00:29:50;14.70;99.90
2435;DHT22;1228;51.022;6.764;2022-12-31T00:32:15;14.70;99.90
2435;DHT22;1228;51.022;6.764;2022-12-31T00:34:41;14.60;99.90
2435;DHT22;1228;51.022;6.764;2022-12-31T00:37:07;14.60;99.90
2435;DHT22;1228;51.022;6.764;2022-12-31T00:39:32;14.60;99.90
2435;DHT22;1228;51.022;6.764;2022-12-31T00:41:58;14.70;99.90
2435;DHT22;1228;51.022;6.764;2022-12-31T00:44:23;14.70;99.90
2435;DHT22;1228;51.022;6.764;2022-12-31T00:46:49;14.70;99.90
2435;DHT22;1228;51.022;6.764;2022-12-31T00:49:15;14.60;99.90
2435;DHT22;1228;51.022;6.764;2022-12-31T00:51:40;14.40;99.90
2435;DHT22;1228;51.022;6.764;2022-12-31T00:54:06;14.30;99.90
2435;DHT22;1228;51.022;6.764;2022-12-31T00:56:32;14.20;99.90
2435;DHT22;1228;51.022;6.764;2022-12-31T00:58:59;14.10;99.90
2435;DHT22;1228;51.022;6.764;2022-12-31T01:01:30;13.90;99.90
2435;DHT22;1228;51.022;6.764;2022-12-31T01:04:07;13.80;99.90
2435;DHT22;1228;51.022;6.764;2022-12-31T01:06:33;13.70;99.90
2435;DHT22;1228;51.022;6.764;2022-12-31T01:08:59;13.70;99.90
2435;DHT22;1228;51.022;6.764;2022-12-31T01:11:24;13.70;99.90
2435;DHT22;1228;51.022;6.764;2022-12-31T01:13:58;13.70;99.90
2435;DHT22;1228;51.022;6.764;2022-12-31T01:16:27;13.70;99.90
2435;DHT22;1228;51.022;6.764;2022-12-31T01:18:53;13.70;99.90
2435;DHT22;1228;51.022;6.764;2022-12-31T01:21:20;13.70;99.90
2435;DHT22;1228;51.022;6.764;2022-12-31T01:23:46;13.80;99.90
2435;DHT22;1228;51.022;6.764;2022-12-31T01:26:13;13.80;99.90
2435;DHT22;1228;51.022;6.764;2022-12-31T01:28:39;13.90;99.90
2435;DHT22;1228;51.022;6.764;2022-12-31T01:31:07;14.00;99.90
2435;DHT22;1228;51.022;6.764;2022-12-31T01:33:34;14.00;99.90
2435;DHT22;1228;51.022;6.764;2022-12-31T01:36:05;14.10;99.90
2435;DHT22;1228;51.022;6.764;2022-12-31T01:38:33;14.20;99.90
2435;DHT22;1228;51.022;6.764;2022-12-31T01:40:59;14.30;99.90
2435;DHT22;1228;51.022;6.764;2022-12-31T01:43:42;14.40;99.90
2435;DHT22;1228;51.022;6.764;2022-12-31T01:46:09;14.60;99.90
2435;DHT22;1228;51.022;6.764;2022-12-31T01:48:36;14.70;99.90
2435;DHT22;1228;51.022;6.764;2022-12-31T01:51:03;14.80;99.90
2435;DHT22;1228;51.022;6.764;2022-12-31T01:53:29;15.00;99.90
2435;DHT22;1228;51.022;6.764;2022-12-31T01:55:57;15.10;99.90
2435;DHT22;1228;51.022;6.764;2022-12-31T01:58:29;15.20;99.90
2435;DHT22;1228;51.022;6.764;2022-12-31T02:00:57;15.30;99.90
2435;DHT22;1228;51.022;6.764;2022-12-31T02:03:23;15.40;99.90
2435;DHT22;1228;51.022;6.764;2022-12-31T02:08:21;15.50;99.90
2435;DHT22;1228;51.022;6.764;2022-12-31T02:10:47;15.50;99.90
2435;DHT22;1228;51.022;6.764;2022-12-31T02:13:13;15.50;99.90
2435;DHT22;1228;51.022;6.764;2022-12-31T02:15:49;15.60;99.90
2435;DHT22;1228;51.022;6.764;2022-12-31T02:18:51;15.50;99.90
2435;DHT22;1228;51.022;6.764;2022-12-31T02:24:06;15.60;99.90
2435;DHT22;1228;51.022;6.764;2022-12-31T02:26:56;15.70;99.90
2435;DHT22;1228;51.022;6.764;2022-12-31T02:29:57;15.80;99.90
2435;DHT22;1228;51.022;6.764;2022-12-31T02:35:08;16.00;99.90
2435;DHT22;1228;51.022;6.764;2022-12-31T02:37:37;16.10;99.90
2435;DHT22;1228;51.022;6.764;2022-12-31T02:40:07;16.20;99.90
2435;DHT22;1228;51.022;6.764;2022-12-31T02:42:34;16.20;99.90
2435;DHT22;1228;51.022;6.764;2022-12-31T02:44:59;16.30;99.90
2435;DHT22;1228;51.022;6.764;2022-12-31T02:50:26;16.40;99.90
2435;DHT22;1228;51.022;6.764;2022-12-31T03:01:39;16.60;99.90
2435;DHT22;1228;51.022;6.764;2022-12-31T03:04:25;16.60;99.90
2435;DHT22;1228;51.022;6.764;2022-12-31T03:07:02;16.60;99.90
2435;DHT22;1228;51.022;6.764;2022-12-31T03:09:28;16.60;99.90
2435;DHT22;1228;51.022;6.764;2022-12-31T03:11:54;16.60;99.90
2435;DHT22;1228;51.022;6.764;2022-12-31T03:14:38;16.60;99.90
2435;DHT22;1228;51.022;6.764;2022-12-31T03:17:04;16.70;99.90
2435;DHT22;1228;51.022;6.764;2022-12-31T03:19:29;16.70;99.90
2435;DHT22;1228;51.022;6.764;2022-12-31T03:22:13;16.60;99.90
2435;DHT22;1228;51.022;6.764;2022-12-31T03:24:57;16.60;99.90
2435;DHT22;1228;51.022;6.764;2022-12-31T03:27:43;16.60;99.90
2435;DHT22;1228;51.022;6.764;2022-12-31T03:30:09;16.60;99.90
2435;DHT22;1228;51.022;6.764;2022-12-31T03:32:35;16.60;99.90
2435;DHT22;1228;51.022;6.764;2022-12-31T03:35:00;16.60;99.90
2435;DHT22;1228;51.022;6.764;2022-12-31T03:37:26;16.60;99.90
2435;DHT22;1228;51.022;6.764;2022-12-31T03:39:51;16.60;99.90
2435;DHT22;1228;51.022;6.764;2022-12-31T03:42:17;16.60;99.90
2435;DHT22;1228;51.022;6.764;2022-12-31T03:44:43;16.50;99.90
2435;DHT22;1228;51.022;6.764;2022-12-31T03:47:08;16.50;99.90
2435;DHT22;1228;51.022;6.764;2022-12-31T03:49:34;16.50;99.90
2435;DHT22;1228;51.022;6.764;2022-12-31T03:51:59;16.40;99.90
2435;DHT22;1228;51.022;6.764;2022-12-31T03:54:27;16.30;99.90
2435;DHT22;1228;51.022;6.764;2022-12-31T03:56:53;16.30;99.90
2435;DHT22;1228;51.022;6.764;2022-12-31T03:59:18;16.40;99.90
2435;DHT22;1228;51.022;6.764;2022-12-31T04:01:44;16.30;99.90
2435;DHT22;1228;51.022;6.764;2022-12-31T04:04:09;16.40;99.90
2435;DHT22;1228;51.022;6.764;2022-12-31T04:06:35;16.40;99.90
2435;DHT22;1228;51.022;6.764;2022-12-31T04:09:01;16.50;99.90
2435;DHT22;1228;51.022;6.764;2022-12-31T04:11:26;16.50;99.90
2435;DHT22;1228;51.022;6.764;2022-12-31T04:13:52;16.50;99.90
2435;DHT22;1228;51.022;6.764;2022-12-31T04:16:17;16.50;99.90
2435;DHT22;1228;51.022;6.764;2022-12-31T04:18:43;16.50;99.90
2435;DHT22;1228;51.022;6.764;2022-12-31T04:21:08;16.50;99.90
2435;DHT22;1228;51.022;6.764;2022-12-31T04:23:34;16.60;99.90
2435;DHT22;1228;51.022;6.764;2022-12-31T04:25:59;16.60;99.90
2435;DHT22;1228;51.022;6.764;2022-12-31T04:28:25;16.60;99.90
2435;DHT22;1228;51.022;6.764;2022-12-31T04:30:51;16.60;99.90
2435;DHT22;1228;51.022;6.764;2022-12-31T04:33:16;16.60;99.90
2435;DHT22;1228;51.022;6.764;2022-12-31T04:35:42;16.60;99.90
2435;DHT22;1228;51.022;6.764;2022-12-31T04:38:08;16.60;99.90
2435;DHT22;1228;51.022;6.764;2022-12-31T04:40:33;16.60;99.90
2435;DHT22;1228;51.022;6.764;2022-12-31T04:42:59;16.60;99.90
2435;DHT22;1228;51.022;6.764;2022-12-31T04:45:25;16.60;99.90
2435;DHT22;1228;51.022;6.764;2022-12-31T04:47:50;16.70;99.90
2435;DHT22;1228;51.022;6.764;2022-12-31T04:50:16;16.70;99.90
2435;DHT22;1228;51.022;6.764;2022-12-31T04:52:41;16.70;99.90
2435;DHT22;1228;51.022;6.764;2022-12-31T04:55:07;16.80;99.90
2435;DHT22;1228;51.022;6.764;2022-12-31T04:57:33;16.80;99.90
2435;DHT22;1228;51.022;6.764;2022-12-31T04:59:58;16.80;99.90
2435;DHT22;1228;51.022;6.764;2022-12-31T05:02:24;16.80;99.90
2435;DHT22;1228;51.022;6.764;2022-12-31T05:04:49;16.80;99.90
2435;DHT22;1228;51.022;6.764;2022-12-31T05:07:15;16.80;99.90
2435;DHT22;1228;51.022;6.764;2022-12-31T05:09:40;16.80;99.90
2435;DHT22;1228;51.022;6.764;2022-12-31T05:12:06;16.80;99.90
2435;DHT22;1228;51.022;6.764;2022-12-31T05:14:32;16.80;99.90
2435;DHT22;1228;51.022;6.764;2022-12-31T05:16:57;16.80;99.90
2435;DHT22;1228;51.022;6.764;2022-12-31T05:19:23;16.80;99.90
2435;DHT22;1228;51.022;6.764;2022-12-31T05:21:49;16.80;99.90
2435;DHT22;1228;51.022;6.764;2022-12-31T05:24:34;16.80;99.90
2435;DHT22;1228;51.022;6.764;2022-12-31T05:27:00;16.90;99.90
2435;DHT22;1228;51.022;6.764;2022-12-31T05:29:26;16.90;99.90
2435;DHT22;1228;51.022;6.764;2022-12-31T05:31:51;16.80;99.90
2435;DHT22;1228;51.022;6.764;2022-12-31T05:34:17;16.80;99.90
2435;DHT22;1228;51.022;6.764;2022-12-31T05:36:43;16.80;99.90
2435;DHT22;1228;51.022;6.764;2022-12-31T05:39:08;16.90;99.90
2435;DHT22;1228;51.022;6.764;2022-12-31T05:41:34;16.80;99.90
2435;DHT22;1228;51.022;6.764;2022-12-31T05:43:59;16.80;99.90
2435;DHT22;1228;51.022;6.764;2022-12-31T05:46:25;16.90;99.90
2435;DHT22;1228;51.022;6.764;2022-12-31T05:48:50;16.80;99.90
2435;DHT22;1228;51.022;6.764;2022-12-31T05:51:16;16.80;99.90
2435;DHT22;1228;51.022;6.764;2022-12-31T05:53:41;16.70;99.90
2435;DHT22;1228;51.022;6.764;2022-12-31T05:56:07;16.80;99.90
2435;DHT22;1228;51.022;6.764;2022-12-31T05:58:33;16.80;99.90
2435;DHT22;1228;51.022;6.764;2022-12-31T06:00:58;16.80;99.90
2435;DHT22;1228;51.022;6.764;2022-12-31T06:03:24;16.80;99.90
2435;DHT22;1228;51.022;6.764;2022-12-31T06:05:49;16.70;99.90
2435;DHT22;1228;51.022;6.764;2022-12-31T06:08:15;16.70;99.90
2435;DHT22;1228;51.022;6.764;2022-12-31T06:10:41;16.80;99.90
2435;DHT22;1228;51.022;6.764;2022-12-31T06:13:07;16.80;99.90
2435;DHT22;1228;51.022;6.764;2022-12-31T06:15:36;16.80;99.90
2435;DHT22;1228;51.022;6.764;2022-12-31T06:18:02;16.90;99.90
2435;DHT22;1228;51.022;6.764;2022-12-31T06:20:28;16.80;99.90
2435;DHT22;1228;51.022;6.764;2022-12-31T06:22:53;16.80;99.90
2435;DHT22;1228;51.022;6.764;2022-12-31T06:25:19;16.90;99.90
2435;DHT22;1228;51.022;6.764;2022-12-31T06:27:45;16.90;99.90
2435;DHT22;1228;51.022;6.764;2022-12-31T06:30:11;17.00;99.90
2435;DHT22;1228;51.022;6.764;2022-12-31T06:32:36;17.10;99.90
2435;DHT22;1228;51.022;6.764;2022-12-31T06:35:04;17.10;99.90
2435;DHT22;1228;51.022;6.764;2022-12-31T06:37:29;17.10;99.90
2435;DHT22;1228;51.022;6.764;2022-12-31T06:39:55;17.10;99.90
2435;DHT22;1228;51.022;6.764;2022-12-31T06:42:20;17.20;98.50
2435;DHT22;1228;51.022;6.764;2022-12-31T06:44:46;17.20;96.90
2435;DHT22;1228;51.022;6.764;2022-12-31T06:47:12;17.20;99.90
2435;DHT22;1228;51.022;6.764;2022-12-31T06:49:37;17.20;98.20
2435;DHT22;1228;51.022;6.764;2022-12-31T06:52:04;17.10;99.90
2435;DHT22;1228;51.022;6.764;2022-12-31T06:54:30;17.00;99.90
2435;DHT22;1228;51.022;6.764;2022-12-31T06:56:56;17.00;99.90
2435;DHT22;1228;51.022;6.764;2022-12-31T06:59:31;17.00;99.90
2435;DHT22;1228;51.022;6.764;2022-12-31T07:05:12;17.00;99.90
2435;DHT22;1228;51.022;6.764;2022-12-31T07:16:37;17.00;99.90
2435;DHT22;1228;51.022;6.764;2022-12-31T07:21:38;17.10;99.20
2435;DHT22;1228;51.022;6.764;2022-12-31T07:24:06;17.10;99.90
2435;DHT22;1228;51.022;6.764;2022-12-31T07:27:01;17.10;96.50
2435;DHT22;1228;51.022;6.764;2022-12-31T07:29:45;17.20;91.30
2435;DHT22;1228;51.022;6.764;2022-12-31T07:43:10;17.30;55.00
2435;DHT22;1228;51.022;6.764;2022-12-31T07:45:46;17.30;39.30
2435;DHT22;1228;51.022;6.764;2022-12-31T07:48:24;17.40;26.80
2435;DHT22;1228;51.022;6.764;2022-12-31T07:50:51;17.40;29.50
2435;DHT22;1228;51.022;6.764;2022-12-31T07:53:19;17.40;25.60
2435;DHT22;1228;51.022;6.764;2022-12-31T07:55:45;17.40;13.50
2435;DHT22;1228;51.022;6.764;2022-12-31T07:58:20;17.40;10.10
2435;DHT22;1228;51.022;6.764;2022-12-31T08:00:47;17.40;8.10
2435;DHT22;1228;51.022;6.764;2022-12-31T08:03:20;17.50;12.30
2435;DHT22;1228;51.022;6.764;2022-12-31T08:06:33;17.40;11.90
2435;DHT22;1228;51.022;6.764;2022-12-31T08:09:38;17.50;9.90
2435;DHT22;1228;51.022;6.764;2022-12-31T08:12:07;17.50;6.50
2435;DHT22;1228;51.022;6.764;2022-12-31T08:14:39;17.50;6.30
2435;DHT22;1228;51.022;6.764;2022-12-31T08:17:12;17.50;8.90
2435;DHT22;1228;51.022;6.764;2022-12-31T08:19:38;17.50;5.40
2435;DHT22;1228;51.022;6.764;2022-12-31T08:25:18;17.40;3.90
2435;DHT22;1228;51.022;6.764;2022-12-31T08:30:27;17.50;8.50
2435;DHT22;1228;51.022;6.764;2022-12-31T08:33:13;17.40;1.60
2435;DHT22;1228;51.022;6.764;2022-12-31T08:38:46;17.50;1.00
2435;DHT22;1228;51.022;6.764;2022-12-31T08:41:27;17.60;1.00
2435;DHT22;1228;51.022;6.764;2022-12-31T08:49:03;17.70;1.00
2435;DHT22;1228;51.022;6.764;2022-12-31T08:51:29;17.70;1.00
2435;DHT22;1228;51.022;6.764;2022-12-31T08:53:55;17.70;1.00
2435;DHT22;1228;51.022;6.764;2022-12-31T08:56:35;17.80;1.00
2435;DHT22;1228;51.022;6.764;2022-12-31T09:04:52;17.80;1.00
2435;DHT22;1228;51.022;6.764;2022-12-31T09:07:27;17.90;1.00
2435;DHT22;1228;51.022;6.764;2022-12-31T09:10:15;17.90;1.00
2435;DHT22;1228;51.022;6.764;2022-12-31T09:15:21;17.90;1.00
2435;DHT22;1228;51.022;6.764;2022-12-31T09:17:50;17.90;1.00
2435;DHT22;1228;51.022;6.764;2022-12-31T09:20:20;17.90;1.00
2435;DHT22;1228;51.022;6.764;2022-12-31T09:22:46;17.90;1.00
2435;DHT22;1228;51.022;6.764;2022-12-31T09:25:14;18.00;1.00
2435;DHT22;1228;51.022;6.764;2022-12-31T09:30:18;18.00;1.00
2435;DHT22;1228;51.022;6.764;2022-12-31T09:35:55;18.10;99.90
2435;DHT22;1228;51.022;6.764;2022-12-31T09:38:36;18.10;17.50
2435;DHT22;1228;51.022;6.764;2022-12-31T09:55:32;18.20;99.90
2435;DHT22;1228;51.022;6.764;2022-12-31T09:58:28;18.10;99.90
2435;DHT22;1228;51.022;6.764;2022-12-31T10:06:59;18.10;99.90
2435;DHT22;1228;51.022;6.764;2022-12-31T10:28:48;18.40;99.90
2435;DHT22;1228;51.022;6.764;2022-12-31T10:31:39;18.40;99.90
2435;DHT22;1228;51.022;6.764;2022-12-31T10:34:50;18.40;99.90
2435;DHT22;1228;51.022;6.764;2022-12-31T10:37:17;18.50;99.90
2435;DHT22;1228;51.022;6.764;2022-12-31T11:16:25;18.40;99.90
2435;DHT22;1228;51.022;6.764;2022-12-31T11:18:59;18.40;99.90
2435;DHT22;1228;51.022;6.764;2022-12-31T11:32:46;18.60;99.90
2435;DHT22;1228;51.022;6.764;2022-12-31T11:35:36;18.60;99.90
2435;DHT22;1228;51.022;6.764;2022-12-31T11:38:29;18.60;99.90
2435;DHT22;1228;51.022;6.764;2022-12-31T11:41:23;18.60;99.90
2435;DHT22;1228;51.022;6.764;2022-12-31T11:44:04;18.50;99.90
2435;DHT22;1228;51.022;6.764;2022-12-31T11:49:46;18.30;99.90
2435;DHT22;1228;51.022;6.764;2022-12-31T11:55:18;18.30;99.90
2435;DHT22;1228;51.022;6.764;2022-12-31T11:57:49;18.30;99.90
2435;DHT22;1228;51.022;6.764;2022-12-31T12:00:18;18.30;99.90
2435;DHT22;1228;51.022;6.764;2022-12-31T12:02:47;18.40;99.90
2435;DHT22;1228;51.022;6.764;2022-12-31T12:05:16;18.40;99.90
2435;DHT22;1228;51.022;6.764;2022-12-31T12:07:42;18.40;99.90
2435;DHT22;1228;51.022;6.764;2022-12-31T12:12:52;18.50;99.90
2435;DHT22;1228;51.022;6.764;2022-12-31T12:15:30;18.50;99.90
2435;DHT22;1228;51.022;6.764;2022-12-31T12:17:58;18.50;99.90
2435;DHT22;1228;51.022;6.764;2022-12-31T12:20:35;18.50;99.90
2435;DHT22;1228;51.022;6.764;2022-12-31T12:23:15;18.60;99.90
2435;DHT22;1228;51.022;6.764;2022-12-31T12:25:42;18.60;99.90
2435;DHT22;1228;51.022;6.764;2022-12-31T12:28:19;18.70;99.90
2435;DHT22;1228;51.022;6.764;2022-12-31T12:30:51;18.70;99.90
2435;DHT22;1228;51.022;6.764;2022-12-31T12:33:18;18.60;99.90
2435;DHT22;1228;51.022;6.764;2022-12-31T12:35:45;18.60;99.90
2435;DHT22;1228;51.022;6.764;2022-12-31T12:38:19;18.60;99.90
2435;DHT22;1228;51.022;6.764;2022-12-31T12:40:57;18.50;99.90
2435;DHT22;1228;51.022;6.764;2022-12-31T12:43:25;18.60;99.90
2435;DHT22;1228;51.022;6.764;2022-12-31T12:45:52;18.50;99.90
2435;DHT22;1228;51.022;6.764;2022-12-31T12:50:53;18.60;99.90
2435;DHT22;1228;51.022;6.764;2022-12-31T12:53:59;18.60;99.90
2435;DHT22;1228;51.022;6.764;2022-12-31T12:56:45;18.60;99.90
2435;DHT22;1228;51.022;6.764;2022-12-31T12:59:43;18.60;99.90
2435;DHT22;1228;51.022;6.764;2022-12-31T13:18:47;18.00;99.90
2435;DHT22;1228;51.022;6.764;2022-12-31T13:21:36;17.50;99.90
2435;DHT22;1228;51.022;6.764;2022-12-31T13:26:53;16.60;99.90
2435;DHT22;1228;51.022;6.764;2022-12-31T13:29:23;16.40;99.90
2435;DHT22;1228;51.022;6.764;2022-12-31T13:31:51;16.30;99.90
2435;DHT22;1228;51.022;6.764;2022-12-31T13:34:26;16.20;99.90
2435;DHT22;1228;51.022;6.764;2022-12-31T13:36:54;16.00;99.90
2435;DHT22;1228;51.022;6.764;2022-12-31T13:39:28;15.90;99.90
2435;DHT22;1228;51.022;6.764;2022-12-31T13:42:00;15.70;99.90
2435;DHT22;1228;51.022;6.764;2022-12-31T13:44:31;15.50;99.90
2435;DHT22;1228;51.022;6.764;2022-12-31T13:47:25;15.40;99.90
2435;DHT22;1228;51.022;6.764;2022-12-31T13:49:53;15.20;99.90
2435;DHT22;1228;51.022;6.764;2022-12-31T13:52:43;15.10;99.90
2435;DHT22;1228;51.022;6.764;2022-12-31T13:55:29;15.10;99.90
2435;DHT22;1228;51.022;6.764;2022-12-31T14:00:36;15.00;99.90
2435;DHT22;1228;51.022;6.764;2022-12-31T14:03:19;15.00;99.90
2435;DHT22;1228;51.022;6.764;2022-12-31T14:08:14;15.00;99.90
2435;DHT22;1228;51.022;6.764;2022-12-31T14:16:16;15.00;99.90
2435;DHT22;1228;51.022;6.764;2022-12-31T14:19:01;15.10;99.90
2435;DHT22;1228;51.022;6.764;2022-12-31T14:24:14;15.10;99.90
2435;DHT22;1228;51.022;6.764;2022-12-31T14:26:45;15.10;99.90
2435;DHT22;1228;51.022;6.764;2022-12-31T14:40:31;15.40;99.90
2435;DHT22;1228;51.022;6.764;2022-12-31T14:46:15;15.50;99.90
2435;DHT22;1228;51.022;6.764;2022-12-31T14:51:14;15.60;99.90
2435;DHT22;1228;51.022;6.764;2022-12-31T14:53:50;15.60;99.90
2435;DHT22;1228;51.022;6.764;2022-12-31T14:56:36;15.60;99.90
2435;DHT22;1228;51.022;6.764;2022-12-31T14:59:25;15.60;99.90
2435;DHT22;1228;51.022;6.764;2022-12-31T15:01:51;15.60;99.90
2435;DHT22;1228;51.022;6.764;2022-12-31T15:04:30;15.60;99.90
2435;DHT22;1228;51.022;6.764;2022-12-31T15:07:25;15.70;99.90
2435;DHT22;1228;51.022;6.764;2022-12-31T15:23:36;15.90;99.90
2435;DHT22;1228;51.022;6.764;2022-12-31T15:26:03;15.90;99.90
2435;DHT22;1228;51.022;6.764;2022-12-31T15:28:33;15.80;99.90
2435;DHT22;1228;51.022;6.764;2022-12-31T15:33:53;15.90;99.90
2435;DHT22;1228;51.022;6.764;2022-12-31T15:36:22;15.90;99.90
2435;DHT22;1228;51.022;6.764;2022-12-31T15:38:49;15.90;99.90
2435;DHT22;1228;51.022;6.764;2022-12-31T15:43:50;15.90;99.90
2435;DHT22;1228;51.022;6.764;2022-12-31T15:46:23;15.90;99.90
2435;DHT22;1228;51.022;6.764;2022-12-31T15:48:56;15.90;99.90
2435;DHT22;1228;51.022;6.764;2022-12-31T15:51:32;15.90;99.90
2435;DHT22;1228;51.022;6.764;2022-12-31T15:54:01;15.90;99.90
2435;DHT22;1228;51.022;6.764;2022-12-31T15:56:40;15.80;99.90
2435;DHT22;1228;51.022;6.764;2022-12-31T15:59:15;15.80;99.90
2435;DHT22;1228;51.022;6.764;2022-12-31T16:01:43;15.80;99.90
2435;DHT22;1228;51.022;6.764;2022-12-31T16:04:25;15.80;99.90
2435;DHT22;1228;51.022;6.764;2022-12-31T16:06:52;15.70;99.90
2435;DHT22;1228;51.022;6.764;2022-12-31T16:09:26;15.70;99.90
2435;DHT22;1228;51.022;6.764;2022-12-31T16:11:55;15.60;99.90
2435;DHT22;1228;51.022;6.764;2022-12-31T16:14:47;15.60;99.90
2435;DHT22;1228;51.022;6.764;2022-12-31T16:17:32;15.50;99.90
2435;DHT22;1228;51.022;6.764;2022-12-31T16:20:00;15.40;99.90
2435;DHT22;1228;51.022;6.764;2022-12-31T16:22:37;15.40;99.90
2435;DHT22;1228;51.022;6.764;2022-12-31T16:25:05;15.40;99.90
2435;DHT22;1228;51.022;6.764;2022-12-31T16:27:33;15.40;99.90
2435;DHT22;1228;51.022;6.764;2022-12-31T16:30:14;15.30;99.90
2435;DHT22;1228;51.022;6.764;2022-12-31T16:32:42;15.30;99.90
2435;DHT22;1228;51.022;6.764;2022-12-31T16:35:24;15.30;99.90
2435;DHT22;1228;51.022;6.764;2022-12-31T16:38:19;15.20;99.90
2435;DHT22;1228;51.022;6.764;2022-12-31T16:41:06;15.20;99.90
2435;DHT22;1228;51.022;6.764;2022-12-31T16:43:41;15.20;99.90
2435;DHT22;1228;51.022;6.764;2022-12-31T16:46:25;15.10;99.90
2435;DHT22;1228;51.022;6.764;2022-12-31T16:49:05;15.10;99.90
2435;DHT22;1228;51.022;6.764;2022-12-31T16:51:35;15.10;99.90
2435;DHT22;1228;51.022;6.764;2022-12-31T16:54:01;15.20;99.90
2435;DHT22;1228;51.022;6.764;2022-12-31T16:56:33;15.20;99.90
2435;DHT22;1228;51.022;6.764;2022-12-31T16:59:11;15.30;99.90
2435;DHT22;1228;51.022;6.764;2022-12-31T17:01:40;15.30;99.90
2435;DHT22;1228;51.022;6.764;2022-12-31T17:04:10;15.30;99.90
2435;DHT22;1228;51.022;6.764;2022-12-31T17:06:36;15.30;99.90
2435;DHT22;1228;51.022;6.764;2022-12-31T17:09:16;15.30;99.90
2435;DHT22;1228;51.022;6.764;2022-12-31T17:14:27;15.20;99.90
2435;DHT22;1228;51.022;6.764;2022-12-31T17:19:43;15.20;99.90
2435;DHT22;1228;51.022;6.764;2022-12-31T17:22:40;15.20;99.90
2435;DHT22;1228;51.022;6.764;2022-12-31T17:25:24;15.30;99.90
2435;DHT22;1228;51.022;6.764;2022-12-31T17:28:05;15.40;99.90
2435;DHT22;1228;51.022;6.764;2022-12-31T17:33:00;15.40;99.90
2435;DHT22;1228;51.022;6.764;2022-12-31T17:35:31;15.40;99.90
2435;DHT22;1228;51.022;6.764;2022-12-31T17:40:48;15.40;99.90
2435;DHT22;1228;51.022;6.764;2022-12-31T17:43:14;15.40;99.90
2435;DHT22;1228;51.022;6.764;2022-12-31T17:45:43;15.40;99.90
2435;DHT22;1228;51.022;6.764;2022-12-31T17:48:15;15.40;99.90
2435;DHT22;1228;51.022;6.764;2022-12-31T17:50:59;15.40;99.90
2435;DHT22;1228;51.022;6.764;2022-12-31T17:53:25;15.40;99.90
2435;DHT22;1228;51.022;6.764;2022-12-31T17:55:52;15.30;99.90
2435;DHT22;1228;51.022;6.764;2022-12-31T17:58:45;15.30;99.90
2435;DHT22;1228;51.022;6.764;2022-12-31T18:01:14;15.30;99.90
2435;DHT22;1228;51.022;6.764;2022-12-31T18:03:40;15.30;99.90
2435;DHT22;1228;51.022;6.764;2022-12-31T18:06:08;15.30;99.90
2435;DHT22;1228;51.022;6.764;2022-12-31T18:08:34;15.20;99.90
2435;DHT22;1228;51.022;6.764;2022-12-31T18:11:00;15.20;99.90
2435;DHT22;1228;51.022;6.764;2022-12-31T18:13:26;15.20;99.90
2435;DHT22;1228;51.022;6.764;2022-12-31T18:15:53;15.20;99.90
2435;DHT22;1228;51.022;6.764;2022-12-31T18:18:27;15.10;99.90
2435;DHT22;1228;51.022;6.764;2022-12-31T18:21:00;15.10;99.90
2435;DHT22;1228;51.022;6.764;2022-12-31T18:23:29;15.00;99.90
2435;DHT22;1228;51.022;6.764;2022-12-31T18:25:56;15.00;99.90
2435;DHT22;1228;51.022;6.764;2022-12-31T18:28:21;14.90;99.90
2435;DHT22;1228;51.022;6.764;2022-12-31T18:30:47;14.80;99.90
2435;DHT22;1228;51.022;6.764;2022-12-31T18:33:14;14.80;99.90
2435;DHT22;1228;51.022;6.764;2022-12-31T18:35:44;14.80;99.90
2435;DHT22;1228;51.022;6.764;2022-12-31T18:38:14;14.80;99.90
2435;DHT22;1228;51.022;6.764;2022-12-31T18:40:40;14.70;99.90
2435;DHT22;1228;51.022;6.764;2022-12-31T18:43:18;14.80;99.90
2435;DHT22;1228;51.022;6.764;2022-12-31T18:45:45;14.80;99.90
2435;DHT22;1228;51.022;6.764;2022-12-31T18:48:11;14.80;99.90
2435;DHT22;1228;51.022;6.764;2022-12-31T18:50:39;14.90;99.90
2435;DHT22;1228;51.022;6.764;2022-12-31T18:53:05;14.90;99.90
2435;DHT22;1228;51.022;6.764;2022-12-31T18:55:47;15.00;99.90
2435;DHT22;1228;51.022;6.764;2022-12-31T18:58:13;15.00;99.90
2435;DHT22;1228;51.022;6.764;2022-12-31T19:00:40;15.10;99.90
2435;DHT22;1228;51.022;6.764;2022-12-31T19:03:05;15.10;99.90
2435;DHT22;1228;51.022;6.764;2022-12-31T19:05:32;15.10;99.90
2435;DHT22;1228;51.022;6.764;2022-12-31T19:07:58;15.10;99.90
2435;DHT22;1228;51.022;6.764;2022-12-31T19:10:25;15.10;99.90
2435;DHT22;1228;51.022;6.764;2022-12-31T19:12:52;15.10;99.90
2435;DHT22;1228;51.022;6.764;2022-12-31T19:17:55;15.10;99.90
2435;DHT22;1228;51.022;6.764;2022-12-31T19:20:21;15.10;99.90
2435;DHT22;1228;51.022;6.764;2022-12-31T19:22:47;15.10;99.90
2435;DHT22;1228;51.022;6.764;2022-12-31T19:25:18;15.10;99.90
2435;DHT22;1228;51.022;6.764;2022-12-31T19:27:44;15.10;99.90
2435;DHT22;1228;51.022;6.764;2022-12-31T19:32:46;15.10;99.90
2435;DHT22;1228;51.022;6.764;2022-12-31T19:35:13;15.10;99.90
2435;DHT22;1228;51.022;6.764;2022-12-31T19:37:39;15.10;99.90
2435;DHT22;1228;51.022;6.764;2022-12-31T19:40:06;15.10;99.90
2435;DHT22;1228;51.022;6.764;2022-12-31T19:42:36;15.10;99.90
2435;DHT22;1228;51.022;6.764;2022-12-31T19:45:01;15.10;99.90
2435;DHT22;1228;51.022;6.764;2022-12-31T19:47:27;15.10;99.90
2435;DHT22;1228;51.022;6.764;2022-12-31T19:49:52;15.10;99.90
2435;DHT22;1228;51.022;6.764;2022-12-31T19:52:18;15.20;99.90
2435;DHT22;1228;51.022;6.764;2022-12-31T19:54:44;15.30;99.90
2435;DHT22;1228;51.022;6.764;2022-12-31T19:57:09;15.40;99.90
2435;DHT22;1228;51.022;6.764;2022-12-31T19:59:35;15.40;99.90
2435;DHT22;1228;51.022;6.764;2022-12-31T20:02:00;15.50;99.90
2435;DHT22;1228;51.022;6.764;2022-12-31T20:04:27;15.50;99.90
2435;DHT22;1228;51.022;6.764;2022-12-31T20:06:52;15.50;99.90
2435;DHT22;1228;51.022;6.764;2022-12-31T20:09:18;15.50;99.90
2435;DHT22;1228;51.022;6.764;2022-12-31T20:11:43;15.60;99.90
2435;DHT22;1228;51.022;6.764;2022-12-31T20:14:09;15.60;99.90
2435;DHT22;1228;51.022;6.764;2022-12-31T20:16:36;15.70;99.90
2435;DHT22;1228;51.022;6.764;2022-12-31T20:19:01;15.80;99.90
2435;DHT22;1228;51.022;6.764;2022-12-31T20:21:28;15.90;99.90
2435;DHT22;1228;51.022;6.764;2022-12-31T20:23:54;15.90;99.90
2435;DHT22;1228;51.022;6.764;2022-12-31T20:26:21;16.00;99.90
2435;DHT22;1228;51.022;6.764;2022-12-31T20:28:47;15.90;99.90
2435;DHT22;1228;51.022;6.764;2022-12-31T20:31:15;15.90;99.90
2435;DHT22;1228;51.022;6.764;2022-12-31T20:33:41;16.00;99.90
2435;DHT22;1228;51.022;6.764;2022-12-31T20:36:10;16.00;99.90
2435;DHT22;1228;51.022;6.764;2022-12-31T20:38:35;16.10;99.90
2435;DHT22;1228;51.022;6.764;2022-12-31T20:41:03;16.10;99.90